Time;durP1;ratioP1;P1;durP2;ratioP2;P2;SDS_P1;SDS_P2;PMS_P1;PMS_P2;Temp;Humidity;BMP_temperature;BMP_pressure;BME280_temperature;BME280_humidity;BME280_pressure;Samples;Min_cycle;Max_cycle;Signal;HPM_P1;HPM_P2
2022/01/02 00:00:25;;;;;;;35.03;22.57;;;10.40;99.90;;;;;;2603070;54;20052;31
2022/01/02 00:03:08;;;;;;;34.30;21.95;;;10.30;99.90;;;;;;2603075;54;20247;31
2022/01/02 00:05:43;;;;;;;48.25;26.20;;;10.30;99.90;;;;;;2602983;54;20035;31
2022/01/02 00:08:18;;;;;;;39.40;23.00;;;10.30;99.90;;;;;;2602984;54;20110;31
2022/01/02 00:10:56;;;;;;;41.05;24.35;;;10.30;99.90;;;;;;2620749;47;20027;31
2022/01/02 00:13:35;;;;;;;39.40;26.48;;;10.20;99.90;;;;;;2603033;54;20022;31
2022/01/02 00:16:14;;;;;;;47.75;28.00;;;10.30;99.90;;;;;;2603153;54;20023;31
2022/01/02 00:19:08;;;;;;;42.87;28.77;;;10.30;99.90;;;;;;2602975;54;20094;31
2022/01/02 00:21:49;;;;;;;33.10;22.58;;;10.20;99.90;;;;;;2603044;54;20250;31
2022/01/02 00:24:27;;;;;;;33.45;23.10;;;10.20;99.90;;;;;;2602910;54;20031;31
2022/01/02 00:27:24;;;;;;;64.50;35.80;;;10.30;99.90;;;;;;2603664;54;20055;31
2022/01/02 00:29:58;;;;;;;106.25;60.60;;;10.20;99.90;;;;;;2603656;54;20178;31
2022/01/02 00:32:39;;;;;;;157.77;66.32;;;10.20;99.90;;;;;;2604103;54;20030;31
2022/01/02 00:35:13;;;;;;;103.97;45.80;;;10.20;99.90;;;;;;2603787;54;20052;31
2022/01/02 00:37:48;;;;;;;80.00;37.15;;;10.20;99.90;;;;;;2604009;54;20797;31
2022/01/02 00:40:24;;;;;;;68.97;35.92;;;10.10;99.90;;;;;;2603752;54;20093;31
2022/01/02 00:43:00;;;;;;;56.28;31.17;;;10.10;99.90;;;;;;2603787;54;20029;31
2022/01/02 00:45:36;;;;;;;51.90;28.80;;;10.10;99.90;;;;;;2603774;54;20030;31
2022/01/02 00:48:19;;;;;;;46.10;27.85;;;10.10;99.90;;;;;;2603739;54;20161;31
2022/01/02 00:50:54;;;;;;;45.53;25.38;;;10.10;99.90;;;;;;2620315;46;20055;31
2022/01/02 00:53:29;;;;;;;43.83;25.48;;;10.00;99.90;;;;;;2603785;54;20037;31
2022/01/02 00:56:04;;;;;;;38.85;24.75;;;9.90;99.90;;;;;;2603724;54;20766;31
2022/01/02 01:01:12;;;;;;;36.65;22.30;;;10.00;99.90;;;;;;2603860;54;20149;31
2022/01/02 01:03:54;;;;;;;42.53;22.45;;;9.90;99.90;;;;;;2603738;54;20800;31
2022/01/02 01:06:39;;;;;;;32.20;19.73;;;9.80;99.90;;;;;;2603765;54;20886;31
2022/01/02 01:09:19;;;;;;;36.45;22.30;;;9.90;99.90;;;;;;2603664;54;20046;31
2022/01/02 01:12:02;;;;;;;37.75;22.05;;;9.90;99.90;;;;;;2603727;54;20069;31
2022/01/02 01:14:35;;;;;;;26.30;18.17;;;9.90;99.90;;;;;;2620709;46;20913;31
2022/01/02 01:17:14;;;;;;;39.35;22.90;;;9.80;99.90;;;;;;2603724;54;20022;31
2022/01/02 01:19:53;;;;;;;39.72;22.30;;;9.80;99.90;;;;;;2621716;46;20810;31
2022/01/02 01:22:28;;;;;;;33.85;21.50;;;9.80;99.90;;;;;;2603651;54;20939;31
2022/01/02 01:25:03;;;;;;;38.47;21.48;;;9.80;99.90;;;;;;2621053;46;20022;31
2022/01/02 01:27:38;;;;;;;35.20;19.58;;;9.80;99.90;;;;;;2607316;46;20992;31
2022/01/02 01:30:14;;;;;;;28.05;17.95;;;9.80;99.90;;;;;;2603708;54;20069;31
2022/01/02 01:32:56;;;;;;;42.40;21.50;;;9.70;99.90;;;;;;2609038;46;20033;31
2022/01/02 01:35:40;;;;;;;41.47;23.10;;;9.70;99.90;;;;;;2603672;54;19984;31
2022/01/02 01:38:20;;;;;;;37.28;21.52;;;9.70;99.90;;;;;;2603150;54;20023;31
2022/01/02 01:44:20;;;;;;;30.45;19.55;;;9.60;99.90;;;;;;2602906;54;20022;31
2022/01/02 01:46:57;;;;;;;39.83;23.90;;;9.60;99.90;;;;;;2603581;54;20068;31
2022/01/02 01:49:39;;;;;;;46.35;25.80;;;9.50;99.90;;;;;;2603474;54;20085;31
2022/01/02 01:52:16;;;;;;;38.40;23.37;;;9.50;99.90;;;;;;2603650;54;20026;31
2022/01/02 01:54:53;;;;;;;42.90;25.73;;;9.50;99.90;;;;;;2603268;54;20019;31
2022/01/02 01:57:31;;;;;;;38.78;22.90;;;9.50;99.90;;;;;;2603535;54;20025;31
2022/01/02 02:00:07;;;;;;;44.23;23.70;;;9.30;99.90;;;;;;2603534;54;20068;31
2022/01/02 02:02:50;;;;;;;45.50;27.85;;;9.30;99.90;;;;;;2603448;54;21171;31
2022/01/02 02:05:29;;;;;;;38.92;26.35;;;9.20;99.90;;;;;;2603512;54;20030;31
2022/01/02 02:08:12;;;;;;;50.22;27.75;;;9.20;99.90;;;;;;2603492;54;20037;31
2022/01/02 02:10:55;;;;;;;;;;;9.20;99.90;;;;;;2603497;54;20748;31
2022/01/02 02:13:41;;;;;;;49.20;28.80;;;9.10;99.90;;;;;;2603550;54;19934;31
2022/01/02 02:16:31;;;;;;;42.72;25.23;;;9.10;99.90;;;;;;2603365;54;20022;31
2022/01/02 02:22:09;;;;;;;36.25;23.00;;;9.00;99.90;;;;;;2603411;54;20757;31
2022/01/02 02:24:43;;;;;;;47.70;29.65;;;8.80;99.90;;;;;;2603579;54;20025;31
2022/01/02 02:27:25;;;;;;;48.28;28.95;;;8.90;99.90;;;;;;2621917;46;20859;31
2022/01/02 02:30:00;;;;;;;44.92;25.35;;;8.80;99.90;;;;;;2603222;54;19942;31
2022/01/02 02:32:37;;;;;;;39.40;25.38;;;8.80;99.90;;;;;;2603381;54;20029;31
2022/01/02 02:35:14;;;;;;;52.97;28.65;;;8.70;99.90;;;;;;2603500;54;20037;31
2022/01/02 02:37:55;;;;;;;46.35;26.90;;;8.60;99.90;;;;;;2603496;54;20754;31
2022/01/02 02:40:32;;;;;;;42.53;25.25;;;8.60;99.90;;;;;;2603626;54;20027;31
2022/01/02 02:43:22;;;;;;;46.95;27.20;;;8.50;99.90;;;;;;2603456;54;20104;31
2022/01/02 02:51:47;;;;;;;40.05;21.73;;;8.50;99.90;;;;;;2603441;54;20849;31
2022/01/02 02:54:35;;;;;;;38.22;20.58;;;8.50;99.90;;;;;;2621718;46;20038;31
2022/01/02 02:57:19;;;;;;;32.90;20.10;;;8.50;99.90;;;;;;2603394;54;20030;31
2022/01/02 02:59:57;;;;;;;30.27;19.48;;;8.50;99.90;;;;;;2621954;46;20116;31
2022/01/02 03:02:37;;;;;;;31.30;18.25;;;8.40;99.90;;;;;;2603456;54;20034;31
2022/01/02 03:05:15;;;;;;;31.25;17.02;;;8.50;99.90;;;;;;2621217;46;20022;31
2022/01/02 03:07:53;;;;;;;29.90;17.02;;;8.50;99.90;;;;;;2620903;46;20022;31
2022/01/02 03:10:29;;;;;;;25.20;14.80;;;8.40;99.90;;;;;;2621184;46;20022;31
2022/01/02 03:13:11;;;;;;;28.42;16.20;;;8.50;99.90;;;;;;2603360;54;20044;31
2022/01/02 03:15:46;;;;;;;28.63;15.07;;;8.50;99.90;;;;;;2603327;54;20890;31
2022/01/02 03:18:25;;;;;;;23.63;14.90;;;8.40;99.90;;;;;;2621838;46;20055;31
2022/01/02 03:20:59;;;;;;;26.58;15.05;;;8.40;99.90;;;;;;2603065;54;20050;31
2022/01/02 03:23:38;;;;;;;22.65;13.43;;;8.40;99.90;;;;;;2621364;46;20022;31
2022/01/02 03:26:14;;;;;;;22.03;12.53;;;8.40;99.90;;;;;;2603350;54;20092;31
2022/01/02 03:28:49;;;;;;;;;;;8.40;99.90;;;;;;2603467;54;20027;31
2022/01/02 03:31:26;;;;;;;25.17;11.57;;;8.40;99.90;;;;;;2603210;54;19943;31
2022/01/02 03:34:02;;;;;;;23.23;13.60;;;8.40;99.90;;;;;;2603412;54;21177;31
2022/01/02 03:36:37;;;;;;;26.38;13.60;;;8.40;99.90;;;;;;2620939;46;20266;31
2022/01/02 03:39:10;;;;;;;24.60;14.10;;;8.30;99.90;;;;;;2621084;46;20031;31
2022/01/02 03:41:46;;;;;;;26.20;13.27;;;8.40;99.90;;;;;;2603319;54;20076;31
2022/01/02 03:44:25;;;;;;;22.75;13.50;;;8.30;99.90;;;;;;2608488;46;21100;31
2022/01/02 03:47:00;;;;;;;22.20;11.00;;;8.30;99.90;;;;;;2621831;46;20057;31
2022/01/02 03:49:34;;;;;;;19.50;10.88;;;8.30;99.90;;;;;;2621249;46;20084;31
2022/01/02 03:52:12;;;;;;;16.85;11.52;;;8.30;99.90;;;;;;2602938;54;20026;31
2022/01/02 03:54:47;;;;;;;19.70;10.90;;;8.30;99.90;;;;;;2603040;54;20778;31
2022/01/02 03:57:21;;;;;;;20.45;10.60;;;8.20;99.90;;;;;;2603197;54;20910;31
2022/01/02 03:59:59;;;;;;;21.25;11.68;;;8.20;99.90;;;;;;2621009;46;20084;31
2022/01/02 04:02:34;;;;;;;19.92;11.88;;;8.20;99.90;;;;;;2621308;46;19938;31
2022/01/02 04:05:12;;;;;;;22.42;10.80;;;8.20;99.90;;;;;;2603300;54;20080;31
2022/01/02 04:07:47;;;;;;;19.20;11.48;;;8.20;99.90;;;;;;2603073;54;20815;31
2022/01/02 04:10:23;;;;;;;23.65;11.30;;;8.20;99.90;;;;;;2620530;47;20025;31
2022/01/02 04:12:58;;;;;;;16.35;11.43;;;8.20;99.90;;;;;;2621668;47;20034;31
2022/01/02 04:15:39;;;;;;;20.80;11.60;;;8.20;99.90;;;;;;2620936;47;20023;31
2022/01/02 04:18:14;;;;;;;19.40;11.97;;;8.10;99.90;;;;;;2603071;54;20064;31
2022/01/02 04:20:49;;;;;;;24.35;12.65;;;8.10;99.90;;;;;;2603096;54;20062;31
2022/01/02 04:23:27;;;;;;;20.35;12.35;;;8.10;99.90;;;;;;2603077;54;20120;31
2022/01/02 04:26:02;;;;;;;;;;;8.20;99.90;;;;;;2603202;54;20023;31
2022/01/02 04:28:38;;;;;;;20.27;12.93;;;8.10;99.90;;;;;;2603031;54;19995;31
2022/01/02 04:31:14;;;;;;;19.65;12.57;;;8.10;99.90;;;;;;2603213;54;20037;31
2022/01/02 04:33:49;;;;;;;19.13;13.52;;;8.10;99.90;;;;;;2602964;54;20026;31
2022/01/02 04:36:25;;;;;;;22.42;13.05;;;8.10;99.90;;;;;;2621090;47;19938;31
2022/01/02 04:38:59;;;;;;;23.70;13.75;;;8.10;99.90;;;;;;2620817;47;19993;31
2022/01/02 04:41:36;;;;;;;23.92;13.07;;;8.00;99.90;;;;;;2621729;47;20038;31
2022/01/02 04:44:13;;;;;;;21.10;13.10;;;8.10;99.90;;;;;;2603044;54;20073;31
2022/01/02 04:46:51;;;;;;;18.40;13.40;;;8.00;99.90;;;;;;2602921;54;20074;31
2022/01/02 04:49:26;;;;;;;17.92;12.13;;;7.90;99.90;;;;;;2603025;54;20102;31
2022/01/02 04:52:09;;;;;;;21.13;12.10;;;8.00;99.90;;;;;;2620387;47;19993;31
2022/01/02 04:54:46;;;;;;;22.15;12.75;;;8.00;99.90;;;;;;2620885;47;20026;31
2022/01/02 04:57:21;;;;;;;17.73;11.70;;;8.00;99.90;;;;;;2621554;47;20030;31
2022/01/02 04:59:56;;;;;;;15.25;10.82;;;8.00;99.90;;;;;;2603211;54;20022;31
2022/01/02 05:02:35;;;;;;;20.58;12.35;;;8.00;99.90;;;;;;2603069;54;20064;31
2022/01/02 05:05:11;;;;;;;19.08;11.38;;;8.00;99.90;;;;;;2602897;54;20872;31
2022/01/02 05:07:46;;;;;;;17.40;11.98;;;8.00;99.90;;;;;;2603006;54;20045;31
2022/01/02 05:10:24;;;;;;;18.70;11.60;;;8.10;99.90;;;;;;2621189;47;20099;31
2022/01/02 05:13:02;;;;;;;17.60;11.00;;;8.00;99.90;;;;;;2622001;47;20026;31
2022/01/02 05:15:38;;;;;;;21.77;11.80;;;8.00;99.90;;;;;;2603503;54;20855;31
2022/01/02 05:18:16;;;;;;;17.93;11.37;;;8.00;99.90;;;;;;2603811;54;21140;31
2022/01/02 05:20:50;;;;;;;19.33;12.23;;;8.00;99.90;;;;;;2603993;54;20266;31
2022/01/02 05:23:29;;;;;;;18.55;10.90;;;7.90;99.90;;;;;;2603730;54;20077;31
2022/01/02 05:26:04;;;;;;;18.38;10.52;;;8.00;99.90;;;;;;2603668;54;20026;31
2022/01/02 05:28:39;;;;;;;17.65;10.73;;;8.00;99.90;;;;;;2603792;54;20970;31
2022/01/02 05:31:15;;;;;;;18.20;11.05;;;8.00;99.90;;;;;;2603759;54;20026;31
2022/01/02 05:33:53;;;;;;;17.42;10.43;;;8.00;99.90;;;;;;2603670;54;20042;31
2022/01/02 05:36:31;;;;;;;17.33;10.75;;;8.00;99.90;;;;;;2603673;54;20031;31
2022/01/02 05:39:08;;;;;;;18.48;12.43;;;8.00;99.90;;;;;;2603497;54;20022;31
2022/01/02 05:41:43;;;;;;;19.90;13.50;;;8.00;99.90;;;;;;2603910;54;20800;31
2022/01/02 05:44:18;;;;;;;21.17;12.90;;;7.90;99.90;;;;;;2603714;54;20903;31
2022/01/02 05:46:54;;;;;;;21.45;12.40;;;7.90;99.90;;;;;;2603642;54;20986;31
2022/01/02 05:49:32;;;;;;;19.33;12.13;;;8.00;99.90;;;;;;2603619;54;20022;31
2022/01/02 05:52:07;;;;;;;18.30;12.02;;;7.90;99.90;;;;;;2603579;54;20108;31
2022/01/02 05:54:41;;;;;;;21.95;13.15;;;7.90;99.90;;;;;;2603494;54;20022;31
2022/01/02 05:57:17;;;;;;;20.87;12.40;;;8.00;99.90;;;;;;2603571;54;20042;31
2022/01/02 05:59:52;;;;;;;20.43;11.33;;;7.90;99.90;;;;;;2603490;54;20752;31
2022/01/02 06:02:27;;;;;;;15.75;11.10;;;7.90;99.90;;;;;;2702096;39;21200;31
2022/01/02 06:05:06;;;;;;;16.15;10.30;;;7.90;99.90;;;;;;2603440;54;20031;31
2022/01/02 06:07:41;;;;;;;16.17;10.52;;;7.90;99.90;;;;;;2603544;54;20868;31
2022/01/02 06:10:15;;;;;;;18.45;9.85;;;7.90;99.90;;;;;;2603581;54;20026;31
2022/01/02 06:12:49;;;;;;;16.25;10.60;;;7.90;99.90;;;;;;2603312;54;20076;31
2022/01/02 06:15:24;;;;;;;16.20;9.90;;;7.90;99.90;;;;;;2621936;46;20955;31
2022/01/02 06:17:58;;;;;;;12.80;9.20;;;7.90;99.90;;;;;;2622137;46;20779;31
2022/01/02 06:20:35;;;;;;;15.68;10.23;;;7.90;99.90;;;;;;2621913;46;20049;31
2022/01/02 06:23:11;;;;;;;16.05;10.10;;;7.90;99.90;;;;;;2603379;54;20792;31
2022/01/02 06:25:48;;;;;;;11.73;8.40;;;7.90;99.90;;;;;;2603266;54;20030;31
2022/01/02 06:28:25;;;;;;;15.93;9.90;;;8.00;99.90;;;;;;2621871;46;20908;31
2022/01/02 06:31:01;;;;;;;18.13;8.93;;;7.80;99.90;;;;;;2603656;54;20243;31
2022/01/02 06:33:36;;;;;;;;;;;7.90;99.90;;;;;;2603816;54;20026;31
2022/01/02 06:36:14;;;;;;;14.23;8.95;;;7.80;99.90;;;;;;2603583;54;19942;31
2022/01/02 06:38:49;;;;;;;12.95;9.38;;;7.80;99.90;;;;;;2603380;54;20033;31
2022/01/02 06:41:26;;;;;;;14.48;9.98;;;7.80;99.90;;;;;;2603271;54;20023;31
2022/01/02 06:44:01;;;;;;;13.27;9.18;;;7.80;99.90;;;;;;2621005;46;20022;31
2022/01/02 06:46:35;;;;;;;12.73;9.00;;;7.80;99.90;;;;;;2621727;46;20022;31
2022/01/02 06:49:10;;;;;;;14.45;9.27;;;7.80;99.90;;;;;;2603322;54;20153;31
2022/01/02 06:51:57;;;;;;;14.15;9.60;;;7.70;99.90;;;;;;2603445;54;20026;31
2022/01/02 06:54:31;;;;;;;14.00;8.75;;;7.70;99.90;;;;;;2603428;54;20027;31
2022/01/02 06:57:06;;;;;;;12.05;7.95;;;7.70;99.90;;;;;;2603514;54;20088;31
2022/01/02 06:59:41;;;;;;;12.50;8.20;;;7.70;99.90;;;;;;2603462;54;20769;31
2022/01/02 07:02:16;;;;;;;14.97;8.20;;;7.70;99.90;;;;;;2603290;54;20038;31
2022/01/02 07:05:01;;;;;;;13.60;7.90;;;7.70;99.90;;;;;;2603263;54;20027;31
2022/01/02 07:08:09;;;;;;;14.93;8.63;;;7.70;99.90;;;;;;2603374;54;20023;31
2022/01/02 07:10:52;;;;;;;12.60;7.73;;;7.70;99.90;;;;;;2603513;54;20022;31
2022/01/02 07:14:11;;;;;;;16.55;8.80;;;7.70;99.90;;;;;;2603394;54;20033;31
2022/01/02 07:16:54;;;;;;;13.95;8.88;;;7.70;99.90;;;;;;2621944;46;20910;31
2022/01/02 07:19:52;;;;;;;10.75;7.05;;;7.70;99.90;;;;;;2621503;46;19934;31
2022/01/02 07:23:04;;;;;;;12.95;7.82;;;7.70;99.90;;;;;;2602591;54;20093;31
2022/01/02 07:25:48;;;;;;;12.88;7.35;;;7.70;99.90;;;;;;2614852;46;20022;31
2022/01/02 07:28:36;;;;;;;11.63;7.45;;;7.70;99.90;;;;;;2603060;54;20038;31
2022/01/02 07:33:56;;;;;;;9.63;6.73;;;7.70;99.90;;;;;;2602443;54;20239;31
2022/01/02 07:36:39;;;;;;;10.68;6.68;;;7.80;99.90;;;;;;2602397;54;20030;31
2022/01/02 07:42:06;;;;;;;9.23;5.72;;;8.10;99.90;;;;;;2608668;46;20032;31
2022/01/02 07:44:51;;;;;;;9.27;6.47;;;8.40;99.90;;;;;;2603411;54;20033;31
2022/01/02 07:47:36;;;;;;;9.70;6.55;;;8.70;99.90;;;;;;2603368;54;20034;31
2022/01/02 07:50:41;;;;;;;9.13;6.47;;;8.90;99.90;;;;;;2603356;54;20817;31
2022/01/02 07:53:30;;;;;;;13.18;7.05;;;9.10;99.90;;;;;;2621709;46;20022;31
2022/01/02 07:56:36;;;;;;;9.88;6.30;;;9.40;99.90;;;;;;2602861;54;20044;31
2022/01/02 07:59:24;;;;;;;9.05;6.40;;;9.70;99.90;;;;;;2603142;54;20105;31
2022/01/02 08:02:31;;;;;;;8.60;6.60;;;9.90;99.90;;;;;;2603023;54;20113;31
2022/01/02 08:08:14;;;;;;;11.20;6.00;;;10.10;99.90;;;;;;2603131;54;20897;31
2022/01/02 08:13:50;;;;;;;7.95;4.95;;;10.70;99.90;;;;;;2602933;54;20065;31
2022/01/02 08:16:26;;;;;;;8.05;5.03;;;10.90;99.90;;;;;;2621265;47;20117;31
2022/01/02 08:27:59;;;;;;;11.27;9.77;;;10.80;99.90;;;;;;2603229;54;20027;31
2022/01/02 08:30:54;;;;;;;10.43;7.63;;;10.70;99.90;;;;;;2603105;54;20081;31
2022/01/02 08:33:36;;;;;;;15.15;10.10;;;10.50;99.90;;;;;;2602913;54;20897;31
2022/01/02 08:39:12;;;;;;;19.38;12.77;;;10.20;99.90;;;;;;2620942;47;20023;31
2022/01/02 08:41:49;;;;;;;22.65;13.45;;;10.10;99.90;;;;;;2603057;54;20054;31
2022/01/02 08:44:28;;;;;;;24.38;12.95;;;9.90;99.90;;;;;;2602747;54;20046;31
2022/01/02 08:47:06;;;;;;;17.42;12.35;;;9.90;99.90;;;;;;2603015;54;20025;31
2022/01/02 08:49:44;;;;;;;18.30;11.83;;;9.90;99.90;;;;;;2603721;54;20097;31
2022/01/02 08:52:25;;;;;;;15.05;10.18;;;9.90;99.90;;;;;;2604032;54;20022;31
2022/01/02 08:55:02;;;;;;;15.93;10.52;;;9.90;99.90;;;;;;2621826;46;20050;31
2022/01/02 08:57:49;;;;;;;17.75;11.18;;;9.90;99.90;;;;;;2603636;54;20026;31
2022/01/02 09:10:00;;;;;;;9.95;5.60;;;10.00;99.90;;;;;;2603779;54;20892;31
2022/01/02 09:12:36;;;;;;;9.45;5.95;;;10.10;99.90;;;;;;2603799;54;20887;31
2022/01/02 09:15:27;;;;;;;8.25;4.82;;;10.10;99.90;;;;;;2602928;54;20038;31
2022/01/02 09:18:03;;;;;;;8.57;5.82;;;10.10;99.90;;;;;;2603578;54;20033;31
2022/01/02 09:20:41;;;;;;;10.25;5.50;;;10.10;99.90;;;;;;2603159;54;20728;31
2022/01/02 09:23:25;;;;;;;7.93;5.03;;;10.10;99.90;;;;;;2603780;54;20033;31
2022/01/02 09:29:28;;;;;;;7.85;4.60;;;10.10;99.90;;;;;;2603413;54;20980;31
2022/01/02 09:37:59;;;;;;;8.20;4.57;;;10.20;99.90;;;;;;2603087;54;20026;31
2022/01/02 09:40:40;;;;;;;6.07;4.20;;;10.10;99.90;;;;;;2603755;54;20057;31
2022/01/02 09:43:27;;;;;;;7.35;3.88;;;10.20;99.90;;;;;;2622060;46;20031;31
2022/01/02 09:49:34;;;;;;;7.95;3.22;;;10.40;99.90;;;;;;2603765;54;20071;31
2022/01/02 09:57:49;;;;;;;5.60;3.05;;;11.20;99.90;;;;;;2603079;54;20048;31
2022/01/02 10:00:27;;;;;;;6.53;3.13;;;11.30;99.90;;;;;;2621756;47;20030;31
2022/01/02 10:03:04;;;;;;;5.97;3.33;;;11.40;99.90;;;;;;2603512;54;20032;31
2022/01/02 10:06:04;;;;;;;5.23;3.07;;;11.40;99.90;;;;;;2621832;46;20892;31
2022/01/02 10:08:45;;;;;;;5.00;3.00;;;11.40;99.90;;;;;;2603586;54;20054;31
2022/01/02 10:11:27;;;;;;;6.70;3.30;;;11.40;99.90;;;;;;2603648;54;20049;31
2022/01/02 10:14:13;;;;;;;7.22;3.05;;;11.40;99.90;;;;;;2603354;54;20050;31
2022/01/02 10:17:09;;;;;;;8.90;3.70;;;11.40;99.90;;;;;;2603546;54;20855;31
2022/01/02 10:19:55;;;;;;;6.75;3.08;;;11.40;99.90;;;;;;2603456;54;20044;31
2022/01/02 10:22:37;;;;;;;5.10;3.05;;;11.40;99.90;;;;;;2603497;54;20022;31
2022/01/02 10:25:14;;;;;;;5.30;3.03;;;11.40;99.90;;;;;;2621832;46;20086;31
2022/01/02 10:27:48;;;;;;;7.30;3.60;;;11.40;99.90;;;;;;2621511;46;20101;31
2022/01/02 10:30:22;;;;;;;6.83;3.57;;;11.40;99.90;;;;;;2603486;54;20026;31
2022/01/02 10:32:57;;;;;;;5.70;3.40;;;11.40;99.90;;;;;;2603635;54;20030;31
2022/01/02 10:35:32;;;;;;;7.20;3.30;;;11.40;99.90;;;;;;2603499;54;20817;31
2022/01/02 10:38:07;;;;;;;6.93;3.85;;;11.40;99.90;;;;;;2603603;54;20042;31
2022/01/02 10:40:44;;;;;;;6.95;3.97;;;11.40;99.90;;;;;;2603306;54;20182;31
2022/01/02 10:43:27;;;;;;;8.00;3.67;;;11.40;99.90;;;;;;2603421;54;20034;31
2022/01/02 10:46:03;;;;;;;8.63;4.43;;;11.40;99.90;;;;;;2603232;54;19937;31
2022/01/02 10:48:38;;;;;;;6.88;4.00;;;11.50;99.90;;;;;;2621952;46;20061;31
2022/01/02 10:51:14;;;;;;;;;;;11.50;99.90;;;;;;2603514;54;20133;31
2022/01/02 10:53:55;;;;;;;9.90;4.50;;;11.40;99.90;;;;;;2603529;54;19934;31
2022/01/02 10:56:33;;;;;;;7.40;3.67;;;11.40;99.90;;;;;;2603476;54;20238;31
2022/01/02 10:59:10;;;;;;;6.97;3.50;;;11.50;99.90;;;;;;2621557;46;20906;31
2022/01/02 11:01:44;;;;;;;7.55;4.10;;;11.40;99.90;;;;;;2603205;54;20154;31
2022/01/02 11:04:18;;;;;;;5.72;3.53;;;11.50;99.90;;;;;;2603562;54;20081;31
2022/01/02 11:06:52;;;;;;;6.90;3.55;;;11.50;99.90;;;;;;2603276;54;20828;31
2022/01/02 11:09:26;;;;;;;5.63;3.43;;;11.50;99.90;;;;;;2621686;46;20897;31
2022/01/02 11:12:06;;;;;;;6.10;3.40;;;11.60;99.90;;;;;;2603484;54;20242;31
2022/01/02 11:14:40;;;;;;;5.85;3.55;;;11.60;99.90;;;;;;2603343;54;20873;31
2022/01/02 11:17:15;;;;;;;5.80;3.65;;;11.60;99.90;;;;;;2702067;39;21035;31
2022/01/02 11:19:49;;;;;;;7.03;3.67;;;11.60;99.90;;;;;;2603274;54;20046;31
2022/01/02 11:22:26;;;;;;;8.13;3.80;;;11.60;99.90;;;;;;2603217;54;20886;31
2022/01/02 11:25:03;;;;;;;8.27;4.15;;;11.60;99.90;;;;;;2621782;46;20855;31
2022/01/02 11:27:45;;;;;;;6.03;3.60;;;11.60;99.90;;;;;;2603263;54;20026;31
2022/01/02 11:30:38;;;;;;;10.23;4.32;;;11.60;99.90;;;;;;2621880;46;20053;31
2022/01/02 11:33:15;;;;;;;7.90;4.07;;;11.60;99.90;;;;;;2603102;54;20030;31
2022/01/02 11:35:50;;;;;;;6.97;4.25;;;11.60;99.90;;;;;;2603364;54;20026;31
2022/01/02 11:38:28;;;;;;;7.40;4.07;;;11.60;99.90;;;;;;2603244;54;20037;31
2022/01/02 11:41:03;;;;;;;7.50;4.38;;;11.60;99.90;;;;;;2603207;54;20081;31
2022/01/02 11:43:57;;;;;;;8.15;4.47;;;11.60;99.90;;;;;;2603324;54;19940;31
2022/01/02 11:46:33;;;;;;;7.70;4.70;;;11.60;99.90;;;;;;2603363;54;20030;31
2022/01/02 11:49:37;;;;;;;8.48;4.63;;;11.60;99.90;;;;;;2603266;54;20050;31
2022/01/02 11:52:31;;;;;;;9.80;5.25;;;11.50;99.90;;;;;;2610777;46;20038;31
2022/01/02 11:55:17;;;;;;;7.43;4.00;;;11.50;99.90;;;;;;2603056;54;20030;31
2022/01/02 11:58:06;;;;;;;8.38;4.50;;;11.50;99.90;;;;;;2603277;54;20026;31
2022/01/02 12:01:46;;;;;;;9.67;4.57;;;11.50;99.90;;;;;;2602872;54;20030;31
2022/01/02 12:04:21;;;;;;;6.30;3.53;;;11.50;99.90;;;;;;2602924;54;20026;31
2022/01/02 12:06:55;;;;;;;8.37;5.13;;;11.50;99.90;;;;;;2603106;54;20030;31
2022/01/02 12:09:40;;;;;;;9.20;5.15;;;11.60;99.90;;;;;;2620971;46;20089;31
2022/01/02 12:12:14;;;;;;;6.80;4.45;;;11.60;99.90;;;;;;2621452;47;20033;31
2022/01/02 12:14:54;;;;;;;8.40;4.57;;;11.60;99.90;;;;;;2603155;54;20026;31
2022/01/02 12:17:32;;;;;;;8.10;4.68;;;11.60;99.90;;;;;;2602445;54;20938;31
2022/01/02 12:20:07;;;;;;;9.65;4.95;;;11.60;99.90;;;;;;2621641;47;20050;31
2022/01/02 12:22:43;;;;;;;9.95;5.90;;;11.60;99.90;;;;;;2603020;54;20854;31
2022/01/02 12:25:20;;;;;;;10.48;5.38;;;11.60;99.90;;;;;;2603859;54;20037;31
2022/01/02 12:27:56;;;;;;;8.13;4.50;;;11.60;99.90;;;;;;2604161;54;20026;31
2022/01/02 12:30:30;;;;;;;7.75;4.35;;;11.60;99.90;;;;;;2604238;54;20853;31
2022/01/02 12:33:07;;;;;;;8.30;4.43;;;11.60;99.90;;;;;;2603890;54;20033;31
2022/01/02 12:35:43;;;;;;;7.63;3.73;;;11.60;99.90;;;;;;2603848;54;20081;31
2022/01/02 12:38:17;;;;;;;7.45;4.20;;;11.60;99.90;;;;;;2622666;46;19941;31
2022/01/02 12:40:53;;;;;;;7.35;4.10;;;11.60;99.90;;;;;;2603271;54;20857;31
2022/01/02 12:43:27;;;;;;;7.82;4.22;;;11.70;99.90;;;;;;2603781;54;20027;31
2022/01/02 12:46:01;;;;;;;8.50;4.55;;;11.60;99.90;;;;;;2604027;54;20030;31
2022/01/02 12:48:39;;;;;;;7.95;4.40;;;11.70;99.90;;;;;;2603644;54;20950;31
2022/01/02 12:51:14;;;;;;;7.40;3.90;;;11.70;99.90;;;;;;2603881;54;20026;31
2022/01/02 12:54:01;;;;;;;9.23;4.07;;;11.70;99.90;;;;;;2603945;54;20293;31
2022/01/02 12:56:38;;;;;;;;;;;11.70;99.90;;;;;;2604164;54;20023;31
2022/01/02 12:59:27;;;;;;;8.43;3.75;;;11.80;99.90;;;;;;2603962;54;20653;31
2022/01/02 13:02:03;;;;;;;6.63;3.80;;;11.80;99.90;;;;;;2622453;46;20964;31
2022/01/02 13:04:41;;;;;;;6.80;3.83;;;11.80;99.90;;;;;;2603881;54;20026;31
2022/01/02 13:07:18;;;;;;;10.07;4.87;;;11.90;99.90;;;;;;2622554;46;20034;31
2022/01/02 13:09:55;;;;;;;8.40;3.65;;;11.90;99.90;;;;;;2622453;46;20249;31
2022/01/02 13:12:30;;;;;;;6.57;3.75;;;11.80;99.90;;;;;;2622368;46;20919;31
2022/01/02 13:15:05;;;;;;;7.63;4.10;;;11.90;99.90;;;;;;2603919;54;20899;31
2022/01/02 13:17:40;;;;;;;7.90;4.05;;;11.90;99.90;;;;;;2622430;46;20788;31
2022/01/02 13:20:18;;;;;;;;;;;11.90;99.90;;;;;;2622316;46;20037;31
2022/01/02 13:22:54;;;;;;;5.78;3.35;;;11.90;99.90;;;;;;2622516;46;20752;31
2022/01/02 13:25:37;;;;;;;6.70;3.50;;;11.90;99.90;;;;;;2603653;54;20903;31
2022/01/02 13:28:13;;;;;;;8.00;4.20;;;11.90;99.90;;;;;;2603770;54;20026;31
2022/01/02 13:30:52;;;;;;;7.55;4.18;;;11.80;99.90;;;;;;2603779;54;20034;31
2022/01/02 13:33:27;;;;;;;7.25;4.18;;;11.80;99.90;;;;;;2603741;54;20029;31
2022/01/02 13:36:12;;;;;;;11.13;4.38;;;11.90;99.90;;;;;;2603705;54;20875;31
2022/01/02 13:38:55;;;;;;;7.60;4.20;;;11.90;99.90;;;;;;2603662;54;20095;31
2022/01/02 13:41:31;;;;;;;11.10;5.70;;;11.80;99.90;;;;;;2603471;54;20093;31
2022/01/02 13:44:17;;;;;;;9.82;4.78;;;11.90;99.90;;;;;;2622042;46;20044;31
2022/01/02 13:46:55;;;;;;;10.80;5.40;;;11.80;99.90;;;;;;2603732;54;20023;31
2022/01/02 13:49:49;;;;;;;9.15;5.03;;;11.80;99.90;;;;;;2603561;54;20926;31
2022/01/02 13:52:29;;;;;;;7.57;4.43;;;11.80;99.90;;;;;;2603723;54;20912;31
2022/01/02 13:55:11;;;;;;;11.13;4.57;;;11.80;99.90;;;;;;2622213;46;20026;31
2022/01/02 13:57:45;;;;;;;12.35;5.57;;;11.70;99.90;;;;;;2603483;54;20772;31
2022/01/02 14:00:25;;;;;;;8.30;5.00;;;11.70;99.90;;;;;;2622038;46;20042;31
2022/01/02 14:03:01;;;;;;;8.10;5.05;;;11.70;99.90;;;;;;2603701;54;20037;31
2022/01/02 14:05:46;;;;;;;;;;;11.70;99.90;;;;;;2603617;54;20861;31
2022/01/02 14:08:24;;;;;;;9.70;5.80;;;11.70;99.90;;;;;;2603303;54;20033;31
2022/01/02 14:11:08;;;;;;;10.88;5.82;;;11.60;99.90;;;;;;2622165;46;20037;31
2022/01/02 14:14:08;;;;;;;12.48;6.22;;;11.60;99.90;;;;;;2622315;46;20786;31
2022/01/02 14:17:16;;;;;;;10.40;5.60;;;11.60;99.90;;;;;;2603490;54;20034;31
2022/01/02 14:19:50;;;;;;;10.70;6.00;;;11.60;99.90;;;;;;2603673;54;20072;31
2022/01/02 14:22:26;;;;;;;8.73;6.00;;;11.50;99.90;;;;;;2621851;46;20325;31
2022/01/02 14:25:05;;;;;;;10.75;5.80;;;11.50;99.90;;;;;;2616413;46;20904;31
2022/01/02 14:27:39;;;;;;;10.85;5.90;;;11.50;99.90;;;;;;2622025;46;20058;31
2022/01/02 14:30:15;;;;;;;13.00;6.37;;;11.40;99.90;;;;;;2603608;54;20854;31
2022/01/02 14:32:50;;;;;;;12.52;6.35;;;11.40;99.90;;;;;;2603718;54;20026;31
2022/01/02 14:35:25;;;;;;;14.50;6.95;;;11.40;99.90;;;;;;2603724;54;20027;31
2022/01/02 14:38:03;;;;;;;11.18;6.20;;;11.40;99.90;;;;;;2603341;54;20046;31
2022/01/02 14:40:40;;;;;;;12.57;7.05;;;11.40;99.90;;;;;;2621430;46;20900;31
2022/01/02 14:43:15;;;;;;;16.05;8.18;;;11.40;99.90;;;;;;2603581;54;20022;31
2022/01/02 14:45:52;;;;;;;12.05;6.57;;;11.40;99.90;;;;;;2603271;54;20868;31
2022/01/02 14:48:28;;;;;;;12.23;6.75;;;11.40;99.90;;;;;;2603490;54;21814;31
2022/01/02 14:51:02;;;;;;;;;;;11.40;99.90;;;;;;2621930;46;20030;31
2022/01/02 14:53:36;;;;;;;15.52;7.90;;;11.40;99.90;;;;;;2603395;54;19934;31
2022/01/02 14:56:13;;;;;;;13.90;8.45;;;11.30;99.90;;;;;;2603426;54;20038;31
2022/01/02 14:58:47;;;;;;;15.33;9.47;;;11.30;99.90;;;;;;2603398;54;20026;31
2022/01/02 15:01:21;;;;;;;18.35;8.00;;;11.30;99.90;;;;;;2603358;54;20021;31